Time;durP1;ratioP1;P1;durP2;ratioP2;P2;SDS_P1;SDS_P2;PMS_P1;PMS_P2;Temp;Humidity;BMP_temperature;BMP_pressure;BME280_temperature;BME280_humidity;BME280_pressure;Samples;Min_cycle;Max_cycle;Signal;HPM_P1;HPM_P2
2023/10/29 00:00:35;;;;;;;4.18;1.75;;;12.40;99.90;;;;;;5000562;28;20041;-87
2023/10/29 00:03:25;;;;;;;4.40;1.88;;;12.40;99.90;;;;;;5002774;28;20088;-86
2023/10/29 00:05:56;;;;;;;3.00;1.73;;;12.40;99.90;;;;;;5004419;28;20066;-87
2023/10/29 00:12:21;;;;;;;7.05;1.58;;;12.40;99.90;;;;;;4999525;28;20033;-86
2023/10/29 00:15:03;;;;;;;4.57;1.58;;;12.40;99.90;;;;;;5007671;28;20050;-85
2023/10/29 00:17:33;;;;;;;3.80;1.55;;;12.50;99.90;;;;;;5001855;28;20033;-85
2023/10/29 00:20:09;;;;;;;4.38;1.65;;;12.50;99.90;;;;;;4995111;28;20039;-84
2023/10/29 00:22:35;;;;;;;2.67;1.45;;;12.40;99.90;;;;;;4997877;28;20039;-85
2023/10/29 00:25:00;;;;;;;2.97;1.40;;;12.60;99.90;;;;;;4998060;28;20028;-82
2023/10/29 00:27:26;;;;;;;6.97;1.70;;;12.50;99.90;;;;;;5008044;28;20034;-87
2023/10/29 00:29:52;;;;;;;2.75;1.30;;;12.50;99.90;;;;;;4983477;28;20061;-87
2023/10/29 00:32:18;;;;;;;5.25;1.60;;;12.40;99.90;;;;;;5004374;28;20030;-84
2023/10/29 00:34:46;;;;;;;3.45;1.52;;;12.40;99.90;;;;;;5016348;28;20034;-85
2023/10/29 00:37:12;;;;;;;2.83;1.70;;;;;;;;;;5000544;28;20113;-86
2023/10/29 00:39:38;;;;;;;7.35;1.50;;;12.40;99.90;;;;;;5001115;28;20030;-83
2023/10/29 00:42:03;;;;;;;4.35;1.50;;;12.40;99.90;;;;;;5006084;28;20454;-87
2023/10/29 00:44:29;;;;;;;4.07;1.45;;;12.40;99.90;;;;;;5002409;28;20018;-87
2023/10/29 00:46:55;;;;;;;3.83;1.30;;;12.40;99.90;;;;;;5000125;28;20109;-87
2023/10/29 00:49:21;;;;;;;4.75;1.70;;;12.40;99.90;;;;;;5000905;28;20031;-86
2023/10/29 00:51:47;;;;;;;5.50;1.75;;;12.30;99.90;;;;;;5005589;28;20026;-88
2023/10/29 00:54:13;;;;;;;4.47;1.50;;;;;;;;;;5011798;28;20037;-87
2023/10/29 00:56:39;;;;;;;3.50;1.45;;;12.40;99.90;;;;;;5014752;28;20029;-87
2023/10/29 00:59:06;;;;;;;3.35;1.30;;;12.30;99.90;;;;;;5015059;28;20030;-86
2023/10/29 01:01:32;;;;;;;3.95;1.30;;;12.40;99.90;;;;;;5004941;28;20038;-83
2023/10/29 01:03:59;;;;;;;3.88;1.55;;;12.40;99.90;;;;;;5002835;28;20042;-86
2023/10/29 01:06:25;;;;;;;6.32;1.77;;;12.50;99.90;;;;;;4993793;28;20048;-83
2023/10/29 01:08:51;;;;;;;3.58;1.30;;;12.50;99.90;;;;;;4999720;28;20027;-83
2023/10/29 01:11:17;;;;;;;3.05;1.33;;;12.70;99.90;;;;;;4998168;28;20037;-85
2023/10/29 01:13:43;;;;;;;2.85;1.30;;;12.50;99.90;;;;;;5010022;28;20049;-86
2023/10/29 01:16:08;;;;;;;2.72;1.23;;;12.60;99.90;;;;;;5011660;28;20061;-85
2023/10/29 01:18:34;;;;;;;3.30;1.10;;;12.50;99.90;;;;;;4999493;28;20034;-88
2023/10/29 01:21:00;;;;;;;5.72;1.40;;;13.20;99.90;;;;;;5006693;28;20042;-87
2023/10/29 01:23:26;;;;;;;2.65;1.40;;;12.60;99.90;;;;;;5005296;28;20017;-87
2023/10/29 01:25:53;;;;;;;5.10;1.77;;;13.50;99.90;;;;;;5004491;28;20042;-87
2023/10/29 01:28:19;;;;;;;1.85;1.05;;;;;;;;;;4997335;28;20460;-88
2023/10/29 01:30:45;;;;;;;3.47;1.23;;;13.00;99.90;;;;;;5001806;28;20036;-88
2023/10/29 01:33:11;;;;;;;5.25;1.20;;;;;;;;;;5003841;28;20042;-89
2023/10/29 01:35:37;;;;;;;3.80;1.20;;;;;;;;;;5011476;28;20231;-87
2023/10/29 01:38:02;;;;;;;6.40;1.35;;;13.10;99.90;;;;;;5008636;28;20044;-86
2023/10/29 01:40:28;;;;;;;4.07;1.25;;;;;;;;;;4995016;28;20422;-85
2023/10/29 01:42:54;;;;;;;5.05;1.30;;;13.20;99.90;;;;;;4999640;28;20025;-87
2023/10/29 01:45:19;;;;;;;3.20;1.00;;;13.30;99.90;;;;;;4991071;28;20030;-87
2023/10/29 01:47:45;;;;;;;4.28;1.23;;;13.10;99.90;;;;;;5002992;28;20038;-87
2023/10/29 01:50:11;;;;;;;4.65;1.30;;;13.10;99.90;;;;;;5012400;28;20033;-86
2023/10/29 01:52:40;;;;;;;3.92;1.20;;;13.20;99.90;;;;;;5006493;28;20102;-89
2023/10/29 01:55:07;;;;;;;3.40;1.23;;;13.50;99.90;;;;;;5001169;28;20125;-87
2023/10/29 01:57:36;;;;;;;2.90;1.23;;;13.30;99.90;;;;;;5004850;28;20089;-87
2023/10/29 02:00:06;;;;;;;2.87;1.17;;;13.30;99.90;;;;;;5001322;28;20038;-87
2023/10/29 02:02:35;;;;;;;4.82;1.10;;;13.30;99.90;;;;;;5006158;28;20075;-87
2023/10/29 02:05:04;;;;;;;2.55;1.10;;;13.40;99.90;;;;;;5001999;28;20121;-87
2023/10/29 02:07:30;;;;;;;2.30;1.05;;;13.40;99.90;;;;;;5017879;28;20022;-84
2023/10/29 02:09:56;;;;;;;3.60;1.05;;;13.40;99.90;;;;;;5003114;28;20033;-86
2023/10/29 02:12:21;;;;;;;3.70;1.20;;;13.20;99.90;;;;;;5006367;28;20438;-84
2023/10/29 02:14:47;;;;;;;2.80;1.23;;;13.40;99.90;;;;;;5010437;28;20030;-87
2023/10/29 02:17:13;;;;;;;3.75;1.40;;;10.70;99.90;;;;;;5009540;28;20027;-85
2023/10/29 02:19:38;;;;;;;4.30;1.20;;;13.30;99.90;;;;;;5042086;28;20026;-87
2023/10/29 02:22:05;;;;;;;3.40;1.20;;;13.30;99.90;;;;;;5008511;28;20046;-87
2023/10/29 02:24:30;;;;;;;5.13;1.25;;;13.30;99.90;;;;;;5005508;28;20090;-85
2023/10/29 02:26:56;;;;;;;2.63;1.10;;;13.40;99.90;;;;;;5003914;28;20046;-86
2023/10/29 02:29:22;;;;;;;2.30;1.20;;;13.30;99.90;;;;;;5000808;28;20035;-82
2023/10/29 02:31:47;;;;;;;4.38;1.30;;;13.30;99.90;;;;;;5000231;28;20034;-85
2023/10/29 02:34:13;;;;;;;2.28;1.10;;;13.30;99.90;;;;;;4998747;28;20047;-87
2023/10/29 02:36:38;;;;;;;5.53;1.10;;;13.30;99.90;;;;;;5001114;28;20205;-86
2023/10/29 02:39:04;;;;;;;3.15;1.00;;;13.20;99.90;;;;;;5005394;28;20034;-84
2023/10/29 02:41:31;;;;;;;2.72;0.95;;;13.30;99.90;;;;;;5002159;28;20159;-87
2023/10/29 02:43:58;;;;;;;2.65;1.17;;;13.70;99.90;;;;;;5006680;28;20024;-87
2023/10/29 02:46:26;;;;;;;3.97;1.20;;;13.30;99.90;;;;;;5017167;28;20060;-85
2023/10/29 02:48:52;;;;;;;4.38;1.20;;;13.30;99.90;;;;;;5012523;28;20026;-83
2023/10/29 02:51:17;;;;;;;4.65;1.20;;;13.30;99.90;;;;;;5006149;28;20085;-88
2023/10/29 02:53:44;;;;;;;6.50;1.40;;;;;;;;;;4998397;28;20057;-87
2023/10/29 02:56:09;;;;;;;4.93;1.00;;;13.30;99.90;;;;;;4988718;28;20727;-86
2023/10/29 02:58:35;;;;;;;2.55;1.30;;;13.30;99.90;;;;;;5001540;28;20061;-85
2023/10/29 03:01:08;;;;;;;3.78;1.30;;;13.40;99.90;;;;;;4997422;28;20026;-83
2023/10/29 03:03:37;;;;;;;5.22;1.17;;;13.40;99.90;;;;;;5015175;28;20027;-85
2023/10/29 03:06:08;;;;;;;2.80;1.30;;;13.50;99.90;;;;;;4998738;28;20034;-83
2023/10/29 03:08:34;;;;;;;2.45;1.00;;;13.50;99.90;;;;;;4998464;28;20054;-82
2023/10/29 03:11:00;;;;;;;3.72;1.30;;;13.60;99.90;;;;;;4999186;28;20513;-84
2023/10/29 03:13:26;;;;;;;2.47;1.00;;;13.60;99.90;;;;;;4999352;28;20446;-83
2023/10/29 03:15:52;;;;;;;2.25;1.17;;;13.60;99.90;;;;;;4998079;28;20037;-85
2023/10/29 03:18:17;;;;;;;4.13;1.08;;;13.50;99.90;;;;;;5005875;28;20042;-81
2023/10/29 03:20:43;;;;;;;3.28;1.30;;;13.60;99.90;;;;;;5001324;28;20040;-84
2023/10/29 03:23:09;;;;;;;3.90;1.20;;;13.60;99.90;;;;;;5001241;28;20027;-83
2023/10/29 03:25:35;;;;;;;2.67;1.20;;;13.50;99.90;;;;;;4999149;28;20031;-83
2023/10/29 03:28:01;;;;;;;3.33;1.40;;;13.60;99.90;;;;;;4996334;28;20487;-85
2023/10/29 03:30:26;;;;;;;4.18;1.10;;;13.50;99.90;;;;;;5009143;28;20114;-85
2023/10/29 03:32:52;;;;;;;4.40;1.00;;;13.40;99.90;;;;;;5012658;28;20034;-86
2023/10/29 03:35:18;;;;;;;5.38;1.23;;;13.40;99.90;;;;;;5015175;28;20045;-83
2023/10/29 03:37:43;;;;;;;5.75;1.30;;;13.40;99.90;;;;;;5026109;28;20031;-83
2023/10/29 03:40:09;;;;;;;4.28;1.48;;;13.40;99.90;;;;;;4997212;28;20034;-82
2023/10/29 03:42:35;;;;;;;4.00;1.38;;;13.30;99.90;;;;;;5008931;28;20443;-82
2023/10/29 03:45:01;;;;;;;4.18;1.20;;;13.60;99.90;;;;;;4988085;28;20034;-82
2023/10/29 03:47:26;;;;;;;3.58;1.42;;;13.40;99.90;;;;;;4996168;28;20034;-82
2023/10/29 03:49:52;;;;;;;3.97;1.48;;;13.30;99.90;;;;;;4993081;28;20538;-86
2023/10/29 03:52:22;;;;;;;9.27;1.48;;;13.40;99.90;;;;;;4992918;28;20026;-85
2023/10/29 03:54:48;;;;;;;4.43;1.53;;;13.10;99.90;;;;;;4997241;28;20031;-81
2023/10/29 03:57:13;;;;;;;4.63;1.30;;;13.20;99.90;;;;;;4998284;28;20304;-85
2023/10/29 03:59:39;;;;;;;3.53;1.30;;;13.20;99.90;;;;;;5006241;28;20026;-83
2023/10/29 04:02:05;;;;;;;3.55;1.20;;;13.30;99.90;;;;;;4994772;28;20034;-84
2023/10/29 04:04:32;;;;;;;3.65;1.27;;;13.40;99.90;;;;;;5012862;28;20027;-84
2023/10/29 04:06:58;;;;;;;3.35;1.38;;;13.30;99.90;;;;;;5001550;28;20042;-84
2023/10/29 04:09:24;;;;;;;2.75;1.10;;;13.40;99.90;;;;;;4999627;28;20026;-82
2023/10/29 04:11:49;;;;;;;2.22;1.20;;;13.90;99.90;;;;;;5024354;28;20022;-84
2023/10/29 04:14:15;;;;;;;3.40;1.45;;;13.20;99.90;;;;;;4990907;28;20050;-83
2023/10/29 04:16:41;;;;;;;9.75;1.55;;;13.30;99.90;;;;;;4996350;28;20454;-82
2023/10/29 04:19:06;;;;;;;4.40;1.50;;;13.50;99.90;;;;;;4997920;28;20054;-83
2023/10/29 04:21:32;;;;;;;3.40;1.35;;;13.30;99.90;;;;;;4996067;28;20507;-82
2023/10/29 04:23:58;;;;;;;4.38;1.20;;;13.20;99.90;;;;;;4995881;28;20105;-83
2023/10/29 04:26:23;;;;;;;2.58;1.10;;;;;;;;;;4995761;28;20502;-84
2023/10/29 04:28:49;;;;;;;4.75;1.73;;;;;;;;;;5013511;28;20018;-84
2023/10/29 04:31:15;;;;;;;3.65;1.20;;;13.30;99.90;;;;;;4991202;28;20490;-84
2023/10/29 04:33:45;;;;;;;2.40;1.10;;;;;;;;;;5012057;28;20034;-85
2023/10/29 04:36:28;;;;;;;2.85;1.30;;;13.30;99.90;;;;;;4994653;28;20037;-83
2023/10/29 04:38:54;;;;;;;4.75;1.27;;;13.40;99.90;;;;;;4992897;28;20026;-87
2023/10/29 04:41:20;;;;;;;3.42;1.52;;;;;;;;;;4996574;28;20031;-82
2023/10/29 04:43:46;;;;;;;2.97;1.30;;;;;;;;;;4997905;28;20025;-84
2023/10/29 04:46:13;;;;;;;6.03;1.38;;;13.30;99.90;;;;;;4994211;28;20027;-83
2023/10/29 04:48:39;;;;;;;4.68;1.70;;;;;;;;;;4996043;28;20092;-86
2023/10/29 04:51:07;;;;;;;3.40;1.30;;;13.30;99.90;;;;;;4994709;28;20446;-88
2023/10/29 04:53:34;;;;;;;4.63;1.60;;;13.30;99.90;;;;;;4993174;28;20023;-84
2023/10/29 04:56:00;;;;;;;3.95;1.38;;;;;;;;;;4996433;28;20136;-84
2023/10/29 04:58:26;;;;;;;7.85;2.25;;;13.30;99.90;;;;;;4997140;28;20049;-85
2023/10/29 05:00:51;;;;;;;5.75;1.63;;;13.20;99.90;;;;;;4996631;28;20041;-83
2023/10/29 05:03:17;;;;;;;5.82;1.60;;;13.20;99.90;;;;;;4995242;28;20030;-86
2023/10/29 05:05:43;;;;;;;5.28;1.80;;;;;;;;;;4996988;28;20022;-85
2023/10/29 05:08:09;;;;;;;5.65;1.67;;;;;;;;;;4992020;28;20026;-87
2023/10/29 05:10:35;;;;;;;10.23;1.77;;;;;;;;;;4993283;28;20064;-86
2023/10/29 05:13:01;;;;;;;4.15;1.58;;;13.20;99.90;;;;;;4996316;28;20039;-88
2023/10/29 05:15:27;;;;;;;7.07;1.85;;;13.20;99.90;;;;;;4996278;28;20093;-85
2023/10/29 05:17:52;;;;;;;4.50;1.65;;;13.10;99.90;;;;;;4977268;28;20030;-88
2023/10/29 05:20:18;;;;;;;5.43;1.75;;;;;;;;;;4994884;28;20041;-82
2023/10/29 05:22:44;;;;;;;5.57;1.77;;;12.90;99.90;;;;;;4992734;28;20034;-83
2023/10/29 05:25:10;;;;;;;4.85;2.17;;;;;;;;;;4995628;28;20026;-83
2023/10/29 05:27:36;;;;;;;7.05;1.90;;;13.10;99.90;;;;;;4993300;28;20039;-82
2023/10/29 05:30:05;;;;;;;3.55;1.70;;;13.10;99.90;;;;;;4992534;28;20050;-83
2023/10/29 05:32:32;;;;;;;3.63;1.70;;;13.10;99.90;;;;;;4991371;28;20149;-82
2023/10/29 05:34:57;;;;;;;5.50;1.80;;;13.10;99.90;;;;;;4997288;28;20032;-83
2023/10/29 05:37:23;;;;;;;3.95;1.90;;;13.20;99.90;;;;;;4986606;28;20686;-82
2023/10/29 05:39:49;;;;;;;5.60;2.17;;;13.10;99.90;;;;;;4990908;28;20026;-85
2023/10/29 05:42:15;;;;;;;6.07;1.70;;;13.10;99.90;;;;;;4998619;28;20026;-83
2023/10/29 05:44:40;;;;;;;6.15;2.25;;;13.10;99.90;;;;;;4992163;28;20903;-84
2023/10/29 05:47:06;;;;;;;4.75;1.85;;;;;;;;;;4996376;28;20032;-86
2023/10/29 05:49:32;;;;;;;5.97;2.00;;;13.10;99.90;;;;;;4997378;28;20030;-86
2023/10/29 05:51:58;;;;;;;5.20;1.70;;;13.10;99.90;;;;;;4994853;28;20022;-85
2023/10/29 05:54:23;;;;;;;3.47;1.42;;;13.40;99.90;;;;;;4994181;28;20034;-87
2023/10/29 05:56:49;;;;;;;5.53;1.83;;;13.10;99.90;;;;;;4998781;28;20026;-87
2023/10/29 05:59:14;;;;;;;5.53;1.73;;;13.00;99.90;;;;;;4998212;28;20030;-84
2023/10/29 06:01:40;;;;;;;5.38;1.60;;;13.00;99.90;;;;;;4993970;28;20038;-86
2023/10/29 06:04:06;;;;;;;4.72;1.75;;;13.20;99.90;;;;;;4995909;28;20061;-82
2023/10/29 06:06:32;;;;;;;4.20;1.55;;;13.10;99.90;;;;;;4998021;28;20057;-84
2023/10/29 06:08:57;;;;;;;5.30;1.60;;;13.10;99.90;;;;;;4992343;28;20395;-87
2023/10/29 06:11:23;;;;;;;4.82;1.65;;;13.20;99.90;;;;;;4992284;28;20026;-85
2023/10/29 06:13:49;;;;;;;5.43;2.15;;;13.20;99.90;;;;;;4996858;28;20315;-85
2023/10/29 06:16:15;;;;;;;3.17;1.60;;;13.10;99.90;;;;;;4996869;28;20061;-86
2023/10/29 06:18:40;;;;;;;4.18;1.63;;;13.10;99.90;;;;;;4992476;28;20042;-86
2023/10/29 06:21:06;;;;;;;3.05;1.42;;;13.10;99.90;;;;;;4991300;28;20049;-84
2023/10/29 06:23:32;;;;;;;5.75;1.95;;;13.10;99.90;;;;;;4992775;28;20029;-85
2023/10/29 06:25:57;;;;;;;6.72;1.92;;;13.10;99.90;;;;;;5001013;28;20022;-84
2023/10/29 06:28:23;;;;;;;4.40;1.70;;;13.20;99.90;;;;;;5003639;28;20054;-86
2023/10/29 06:30:48;;;;;;;5.78;1.65;;;13.10;99.90;;;;;;5006323;28;20049;-84
2023/10/29 06:33:14;;;;;;;3.40;2.00;;;13.20;99.90;;;;;;4999120;28;20463;-84
2023/10/29 06:35:40;;;;;;;5.28;2.25;;;13.20;99.90;;;;;;4999252;28;20034;-84
2023/10/29 06:38:06;;;;;;;4.93;1.60;;;13.20;99.90;;;;;;4996775;28;20034;-87
2023/10/29 06:40:32;;;;;;;3.40;1.80;;;13.30;99.90;;;;;;4997161;28;20057;-86
2023/10/29 06:42:57;;;;;;;4.82;1.70;;;14.40;99.90;;;;;;4993411;28;20306;-88
2023/10/29 06:45:23;;;;;;;4.05;1.52;;;13.20;99.90;;;;;;4991734;28;20497;-83
2023/10/29 06:47:49;;;;;;;5.50;1.70;;;13.20;99.90;;;;;;4996125;28;20027;-87
2023/10/29 06:50:14;;;;;;;3.47;1.63;;;13.30;99.90;;;;;;5000378;28;20037;-86
2023/10/29 06:52:41;;;;;;;5.40;1.83;;;;;;;;;;4995360;28;20473;-85
2023/10/29 06:55:08;;;;;;;4.72;1.80;;;13.20;99.90;;;;;;4988181;28;20053;-86
2023/10/29 06:57:34;;;;;;;6.82;1.80;;;;;;;;;;4998676;28;20038;-86
2023/10/29 07:00:00;;;;;;;4.78;1.77;;;13.30;99.90;;;;;;5033088;28;20034;-86
2023/10/29 07:02:26;;;;;;;2.83;1.40;;;13.40;99.90;;;;;;4999048;28;20119;-88
2023/10/29 07:04:51;;;;;;;6.10;1.70;;;13.70;99.90;;;;;;5005633;28;20022;-86
2023/10/29 07:07:18;;;;;;;7.32;1.70;;;13.30;99.90;;;;;;5013161;28;20010;-85
2023/10/29 07:09:44;;;;;;;6.93;1.90;;;15.00;99.90;;;;;;5000525;28;20026;-87
2023/10/29 07:12:09;;;;;;;3.53;1.40;;;13.30;99.90;;;;;;4998048;28;20037;-87
2023/10/29 07:14:35;;;;;;;5.32;1.58;;;;;;;;;;4998812;28;20080;-83
2023/10/29 07:17:01;;;;;;;3.30;1.48;;;13.50;99.90;;;;;;4997391;28;20379;-84
2023/10/29 07:19:27;;;;;;;4.57;1.73;;;13.50;99.90;;;;;;4998679;28;20098;-86
2023/10/29 07:21:52;;;;;;;3.90;1.20;;;13.60;99.90;;;;;;4999137;28;20026;-87
2023/10/29 07:24:18;;;;;;;3.22;1.38;;;13.40;99.90;;;;;;5014042;28;20057;-88
2023/10/29 07:26:44;;;;;;;3.45;1.27;;;13.50;99.90;;;;;;4998424;28;20026;-87
2023/10/29 07:29:11;;;;;;;1.98;1.10;;;13.50;99.90;;;;;;4999268;28;20046;-86
2023/10/29 07:31:37;;;;;;;6.53;1.50;;;;;;;;;;4998097;28;20035;-88
2023/10/29 07:34:03;;;;;;;3.63;1.20;;;13.50;99.90;;;;;;4996730;28;20084;-86
2023/10/29 07:36:29;;;;;;;7.10;1.52;;;13.60;99.90;;;;;;4998147;28;20078;-88
2023/10/29 07:38:55;;;;;;;5.95;1.20;;;13.50;99.90;;;;;;4992709;28;20038;-87
2023/10/29 07:41:21;;;;;;;2.72;1.48;;;13.50;99.90;;;;;;5001743;28;20435;-87
2023/10/29 07:43:47;;;;;;;3.63;1.50;;;;;;;;;;4984345;28;20023;-90
2023/10/29 07:46:13;;;;;;;2.83;1.40;;;13.50;99.90;;;;;;4999279;28;20091;-90
2023/10/29 07:48:40;;;;;;;4.35;1.50;;;13.70;99.90;;;;;;5008217;28;20025;-87
2023/10/29 07:51:06;;;;;;;1.90;1.05;;;13.60;99.90;;;;;;5007900;28;20045;-86
2023/10/29 07:53:31;;;;;;;1.92;1.20;;;13.60;99.90;;;;;;5008038;28;20038;-83
2023/10/29 07:56:15;;;;;;;5.90;1.48;;;13.60;99.90;;;;;;5005353;28;20022;-87
2023/10/29 07:58:42;;;;;;;4.78;1.30;;;13.60;99.90;;;;;;5015798;28;20041;-84
2023/10/29 08:01:11;;;;;;;2.72;1.25;;;13.80;99.90;;;;;;5006043;28;20030;-82
2023/10/29 08:03:38;;;;;;;3.20;1.02;;;13.60;99.90;;;;;;5010081;28;20022;-86
2023/10/29 08:06:05;;;;;;;6.00;1.55;;;13.70;99.90;;;;;;5011197;28;20431;-85
2023/10/29 08:08:30;;;;;;;3.38;1.15;;;13.70;99.90;;;;;;5006547;28;20030;-81
2023/10/29 08:10:56;;;;;;;3.95;1.35;;;;;;;;;;5015324;28;20490;-83
2023/10/29 08:13:22;;;;;;;5.10;1.30;;;;;;;;;;5007309;28;20026;-86
2023/10/29 08:15:48;;;;;;;5.05;1.60;;;;;;;;;;5015014;28;20414;-82
2023/10/29 08:18:14;;;;;;;5.90;1.75;;;13.80;99.90;;;;;;5014089;28;20025;-83
2023/10/29 08:20:40;;;;;;;3.42;1.45;;;;;;;;;;5012858;28;20037;-86
2023/10/29 08:23:06;;;;;;;4.05;1.40;;;;;;;;;;5035775;28;20116;-82
2023/10/29 08:25:35;;;;;;;5.32;1.75;;;13.80;99.90;;;;;;5013194;28;20089;-85
2023/10/29 08:28:01;;;;;;;3.10;1.58;;;14.90;99.90;;;;;;5008581;28;20034;-87
2023/10/29 08:30:27;;;;;;;4.90;1.52;;;;;;;;;;5002227;28;20049;-87
2023/10/29 08:32:53;;;;;;;5.82;1.70;;;;;;;;;;5038637;28;20045;-85
2023/10/29 08:35:18;;;;;;;5.45;2.20;;;13.70;99.90;;;;;;5036591;28;20034;-87
2023/10/29 08:37:44;;;;;;;5.60;1.40;;;13.70;99.90;;;;;;5015763;28;20062;-87
2023/10/29 08:40:12;;;;;;;5.35;1.80;;;13.70;99.90;;;;;;5006110;28;20109;-87
2023/10/29 08:42:38;;;;;;;4.60;1.73;;;;;;;;;;5005517;28;20053;-86
2023/10/29 08:45:04;;;;;;;4.63;1.40;;;13.60;99.90;;;;;;5020815;28;20061;-86
2023/10/29 08:47:31;;;;;;;3.05;1.20;;;13.60;99.90;;;;;;5001642;28;20030;-83
2023/10/29 08:49:57;;;;;;;5.35;2.08;;;;;;;;;;5010364;28;20022;-82
2023/10/29 08:52:23;;;;;;;3.83;1.40;;;;;;;;;;4998521;28;20073;-84
2023/10/29 08:54:49;;;;;;;5.78;1.30;;;13.70;99.90;;;;;;5003299;28;20494;-82
2023/10/29 08:57:14;;;;;;;3.17;1.42;;;14.00;99.90;;;;;;5005534;28;20034;-84
2023/10/29 08:59:40;;;;;;;4.45;1.63;;;13.70;99.90;;;;;;5001173;28;20036;-84
2023/10/29 09:02:08;;;;;;;4.82;1.30;;;13.70;99.90;;;;;;5007098;28;20037;-85
2023/10/29 09:04:47;;;;;;;3.28;1.15;;;14.10;99.90;;;;;;5019793;28;20116;-83
2023/10/29 09:07:17;;;;;;;3.15;1.23;;;13.70;99.90;;;;;;5004257;28;20018;-85
2023/10/29 09:09:42;;;;;;;2.92;1.38;;;13.80;99.90;;;;;;5007126;28;20034;-84
2023/10/29 09:12:11;;;;;;;2.15;1.05;;;15.10;99.90;;;;;;5004925;28;20038;-86
2023/10/29 09:14:45;;;;;;;3.28;1.08;;;13.70;99.90;;;;;;5004531;28;20069;-87
2023/10/29 09:17:13;;;;;;;3.10;1.25;;;13.70;99.90;;;;;;5005027;28;20034;-85
2023/10/29 09:19:42;;;;;;;2.20;1.10;;;;;;;;;;5017914;28;20030;-84
2023/10/29 09:22:16;;;;;;;4.50;1.38;;;13.70;99.90;;;;;;5009599;28;20037;-86
2023/10/29 09:24:58;;;;;;;4.40;1.20;;;13.60;99.90;;;;;;5008144;28;20049;-84
2023/10/29 09:27:29;;;;;;;1.88;1.00;;;13.50;99.90;;;;;;5003849;28;20247;-85
2023/10/29 09:30:24;;;;;;;1.90;0.85;;;13.40;99.90;;;;;;5014739;28;20057;-88
2023/10/29 09:33:34;;;;;;;;;;;;;;;;;;;;;
2023/10/29 09:36:43;;;;;;;3.20;0.90;;;13.40;99.90;;;;;;5005286;28;20058;-87
2023/10/29 09:39:41;;;;;;;;;;;;;;;;;;;;;
2023/10/29 09:42:17;;;;;;;4.00;1.10;;;13.40;99.90;;;;;;5008725;28;20050;-86
2023/10/29 09:44:52;;;;;;;1.77;1.10;;;13.30;99.90;;;;;;5010613;28;20073;-85
2023/10/29 09:47:25;;;;;;;3.00;1.10;;;13.30;99.90;;;;;;5006781;28;20019;-88
2023/10/29 09:50:01;;;;;;;1.77;0.82;;;13.30;99.90;;;;;;5006256;28;20030;-85
2023/10/29 09:52:45;;;;;;;;;;;;;;;;;;;;;
2023/10/29 09:55:15;;;;;;;3.17;1.10;;;13.30;99.90;;;;;;5005638;28;20126;-87
2023/10/29 09:58:02;;;;;;;;;;;;;;;;;;;;;
2023/10/29 10:01:22;;;;;;;;;;;;;;;;;;;;;
2023/10/29 10:04:04;;;;;;;2.03;0.93;;;13.20;99.90;;;;;;4972861;28;20073;-87
2023/10/29 10:07:01;;;;;;;;;;;;;;;;;;;;;
2023/10/29 10:09:48;;;;;;;1.40;0.88;;;;;;;;;;5010560;28;20058;-87
2023/10/29 10:12:25;;;;;;;1.77;1.05;;;13.10;99.90;;;;;;5032636;28;20035;-82
2023/10/29 10:15:23;;;;;;;;;;;;;;;;;;;;;
2023/10/29 10:18:20;;;;;;;2.97;0.90;;;13.00;99.90;;;;;;5005633;28;20064;-82
2023/10/29 10:20:59;;;;;;;2.35;1.00;;;13.20;99.90;;;;;;5014101;28;20038;-85
2023/10/29 10:23:55;;;;;;;5.00;2.08;;;13.00;99.90;;;;;;5011496;28;20027;-84
2023/10/29 10:26:52;;;;;;;2.95;1.10;;;13.10;99.90;;;;;;5024828;28;20360;-86
2023/10/29 10:29:35;;;;;;;2.60;0.98;;;13.10;99.90;;;;;;5005974;28;20076;-85
2023/10/29 10:32:15;;;;;;;2.92;1.55;;;13.10;99.90;;;;;;4998827;28;20030;-84
2023/10/29 10:35:27;;;;;;;;;;;;;;;;;;;;;
2023/10/29 10:38:03;;;;;;;3.08;1.10;;;13.00;99.90;;;;;;4988306;28;20168;-84
2023/10/29 10:40:44;;;;;;;3.30;1.30;;;12.90;99.90;;;;;;4975254;28;20031;-83
2023/10/29 10:43:52;;;;;;;2.60;1.30;;;13.00;99.90;;;;;;5033896;28;20034;-82
2023/10/29 10:46:41;;;;;;;5.55;1.52;;;12.00;99.90;;;;;;4986513;28;20050;-85
2023/10/29 10:49:07;;;;;;;2.28;0.95;;;;;;;;;;5006327;28;20029;-83
2023/10/29 10:51:39;;;;;;;3.58;1.60;;;13.00;99.90;;;;;;5007512;28;20034;-86
2023/10/29 10:54:05;;;;;;;2.05;1.20;;;13.00;99.90;;;;;;5000415;28;20038;-84
2023/10/29 10:56:36;;;;;;;3.83;1.80;;;13.10;99.90;;;;;;5007590;28;20034;-84
2023/10/29 10:59:05;;;;;;;;;;;13.20;99.90;;;;;;5010244;28;20038;-84
2023/10/29 11:01:32;;;;;;;3.25;1.20;;;13.10;99.90;;;;;;5040586;23;19923;-89
2023/10/29 11:03:59;;;;;;;2.97;1.25;;;;;;;;;;5054943;28;20025;-88
2023/10/29 11:06:26;;;;;;;3.83;1.63;;;;;;;;;;5059090;28;20010;-87
2023/10/29 11:08:53;;;;;;;5.60;1.50;;;13.10;99.90;;;;;;5056462;28;20022;-89
2023/10/29 11:11:20;;;;;;;4.97;1.40;;;13.10;99.90;;;;;;5051659;28;20013;-87
2023/10/29 11:13:46;;;;;;;4.10;1.85;;;;;;;;;;5052925;28;20026;-88
2023/10/29 11:16:24;;;;;;;4.80;2.00;;;13.20;99.90;;;;;;5049165;28;20040;-89
2023/10/29 11:18:50;;;;;;;5.88;3.42;;;14.50;99.90;;;;;;5054946;28;20006;-87
2023/10/29 11:21:43;;;;;;;5.53;2.58;;;13.20;99.90;;;;;;5052998;28;20037;-89
2023/10/29 11:24:17;;;;;;;4.30;2.20;;;13.30;99.90;;;;;;5054097;28;20037;-88
2023/10/29 11:26:43;;;;;;;3.13;1.75;;;13.40;99.90;;;;;;5051993;28;20029;-88
2023/10/29 11:29:08;;;;;;;2.33;1.20;;;13.20;99.90;;;;;;5055417;28;20013;-90
2023/10/29 11:31:35;;;;;;;1.88;1.10;;;;;;;;;;5059932;28;20014;-90
2023/10/29 11:34:00;;;;;;;2.80;1.40;;;13.10;99.90;;;;;;5056791;28;20024;-89
2023/10/29 11:36:32;;;;;;;2.08;1.17;;;14.60;99.90;;;;;;5052202;28;20028;-89
2023/10/29 11:39:16;;;;;;;3.15;1.20;;;13.00;99.90;;;;;;5047748;28;20060;-89
2023/10/29 11:41:49;;;;;;;2.33;1.42;;;13.10;99.90;;;;;;5051028;28;20092;-88
2023/10/29 11:44:17;;;;;;;2.05;1.10;;;13.10;99.90;;;;;;5052734;28;20022;-88
2023/10/29 11:47:11;;;;;;;2.42;1.00;;;14.60;99.90;;;;;;5051211;28;20025;-89
2023/10/29 11:49:45;;;;;;;2.72;1.10;;;13.10;99.90;;;;;;5052562;28;20032;-89
2023/10/29 11:52:11;;;;;;;3.03;1.02;;;13.10;99.90;;;;;;5052508;28;20009;-88
2023/10/29 11:54:40;;;;;;;2.53;1.20;;;;;;;;;;5056502;28;20031;-89
2023/10/29 11:57:09;;;;;;;2.30;1.20;;;13.10;99.90;;;;;;5054642;28;20013;-89
2023/10/29 11:59:51;;;;;;;2.10;1.10;;;13.10;99.90;;;;;;5054126;28;20037;-88
2023/10/29 12:02:17;;;;;;;2.45;1.25;;;;;;;;;;5054053;28;20023;-89
2023/10/29 12:04:43;;;;;;;2.25;1.17;;;13.10;99.90;;;;;;5051534;28;20038;-89
2023/10/29 12:07:08;;;;;;;3.13;1.08;;;13.10;99.90;;;;;;5051527;28;20038;-90
2023/10/29 12:09:35;;;;;;;2.60;1.33;;;;;;;;;;5070278;28;20117;-89
2023/10/29 12:12:09;;;;;;;3.38;1.40;;;13.00;99.90;;;;;;5054114;28;20013;-89
2023/10/29 12:14:46;;;;;;;3.25;1.50;;;13.10;99.90;;;;;;5045333;28;20017;-88
2023/10/29 12:17:14;;;;;;;1.77;1.20;;;13.00;99.90;;;;;;5054856;28;20033;-89
2023/10/29 12:19:41;;;;;;;3.10;1.30;;;13.00;99.90;;;;;;5052869;28;20085;-89
2023/10/29 12:22:20;;;;;;;2.63;1.48;;;15.40;99.90;;;;;;5053132;28;20018;-89
2023/10/29 12:24:50;;;;;;;1.95;1.40;;;13.30;99.90;;;;;;5053760;28;20010;-87
2023/10/29 12:27:18;;;;;;;2.47;1.52;;;;;;;;;;5051871;28;20013;-89
2023/10/29 12:29:44;;;;;;;4.30;2.55;;;;;;;;;;5052760;28;20042;-90
2023/10/29 12:32:24;;;;;;;4.75;2.38;;;13.00;99.90;;;;;;5053555;28;20021;-91
2023/10/29 12:34:50;;;;;;;2.72;1.50;;;13.10;99.90;;;;;;5052066;28;20204;-88
2023/10/29 12:37:27;;;;;;;3.25;1.63;;;13.10;99.90;;;;;;5050836;28;20044;-89
2023/10/29 12:39:56;;;;;;;4.32;1.98;;;13.10;99.90;;;;;;5036328;28;20044;-89
2023/10/29 12:42:42;;;;;;;5.93;2.00;;;13.20;99.90;;;;;;5037026;28;20029;-90
2023/10/29 12:45:08;;;;;;;3.55;1.90;;;13.20;99.90;;;;;;5054360;28;20033;-87
2023/10/29 12:47:34;;;;;;;4.07;2.10;;;13.20;99.90;;;;;;5054208;28;20105;-89
2023/10/29 12:50:01;;;;;;;2.50;1.70;;;13.20;99.90;;;;;;5047131;28;20010;-90
2023/10/29 12:52:27;;;;;;;3.33;1.70;;;;;;;;;;5054893;28;20040;-87
2023/10/29 12:54:54;;;;;;;4.90;2.00;;;;;;;;;;5051774;28;20062;-88
2023/10/29 12:57:23;;;;;;;6.15;2.22;;;;;;;;;;5056262;28;20017;-89
2023/10/29 12:59:49;;;;;;;3.78;1.52;;;;;;;;;;5051894;28;20049;-89
2023/10/29 13:02:22;;;;;;;2.92;1.20;;;13.20;99.90;;;;;;5051090;28;20053;-88
2023/10/29 13:04:49;;;;;;;3.13;1.50;;;;;;;;;;5032202;28;20037;-85
2023/10/29 13:07:17;;;;;;;4.60;2.70;;;;;;;;;;5051625;28;20044;-90
2023/10/29 13:09:43;;;;;;;3.20;1.30;;;;;;;;;;5053671;28;20018;-89
2023/10/29 13:12:10;;;;;;;2.22;1.25;;;13.20;99.90;;;;;;5051312;28;20054;-88
2023/10/29 13:14:37;;;;;;;2.63;1.48;;;;;;;;;;5053311;28;20098;-89
2023/10/29 13:17:03;;;;;;;2.13;1.20;;;13.20;99.90;;;;;;5052444;28;20093;-89
2023/10/29 13:19:29;;;;;;;1.58;1.00;;;13.20;99.90;;;;;;5051220;28;20028;-88
2023/10/29 13:21:56;;;;;;;2.03;0.98;;;;;;;;;;5050779;28;20034;-88
2023/10/29 13:24:22;;;;;;;2.35;1.10;;;13.10;99.90;;;;;;5049230;28;20013;-88
2023/10/29 13:26:53;;;;;;;2.20;0.90;;;13.10;99.90;;;;;;5053381;28;20093;-89
2023/10/29 13:29:20;;;;;;;;;;;13.10;99.90;;;;;;5053666;28;20010;-88